createdAt,value
2019-01-19T00:00:10.715Z,83.04
2019-01-19T00:02:45.297Z,82.93
2019-01-19T00:06:04.190Z,81.32
2019-01-19T00:09:00.175Z,80.69
2019-01-19T00:12:04.224Z,80.14
2019-01-19T00:14:44.656Z,79.56
2019-01-19T00:17:32.753Z,78.00
2019-01-19T00:20:37.962Z,77.15
2019-01-19T00:23:48.780Z,77.34
2019-01-19T00:26:52.409Z,77.86
2019-01-19T00:29:45.881Z,78.25
2019-01-19T00:32:53.444Z,78.13
2019-01-19T00:35:47.254Z,75.25
2019-01-19T00:38:29.174Z,78.11
2019-01-19T00:41:38.756Z,77.54
2019-01-19T00:45:09.041Z,75.56
2019-01-19T00:48:15.834Z,73.13
2019-01-19T00:51:18.241Z,73.12
2019-01-19T00:53:54.438Z,68.10
2019-01-19T00:56:58.062Z,68.62
2019-01-19T00:59:29.964Z,73.12
2019-01-19T01:02:47.629Z,70.62
2019-01-19T01:05:55.399Z,70.58
2019-01-19T01:08:49.865Z,76.37
2019-01-19T01:11:47.001Z,72.16
2019-01-19T01:14:52.498Z,72.68
2019-01-19T01:17:49.666Z,74.93
2019-01-19T01:20:48.557Z,74.17
2019-01-19T01:24:12.921Z,74.32
2019-01-19T01:27:23.521Z,74.71
2019-01-19T01:30:53.422Z,77.21
2019-01-19T01:34:17.848Z,77.09
2019-01-19T01:37:26.536Z,77.24
2019-01-19T01:40:41.701Z,77.00
2019-01-19T01:43:41.074Z,81.51
2019-01-19T01:46:37.312Z,82.09
2019-01-19T01:49:22.447Z,79.06
2019-01-19T01:52:17.806Z,79.53
2019-01-19T01:55:17.417Z,78.94
2019-01-19T01:58:12.863Z,83.51
2019-01-19T02:01:21.676Z,83.34
2019-01-19T02:04:10.969Z,85.25
2019-01-19T02:07:05.203Z,81.25
2019-01-19T02:10:02.531Z,82.59
2019-01-19T02:12:49.028Z,82.44
2019-01-19T02:15:51.146Z,80.76
2019-01-19T02:18:59.210Z,74.76
2019-01-19T02:22:22.635Z,73.25
2019-01-19T02:25:37.091Z,74.73
2019-01-19T02:28:13.805Z,74.64
2019-01-19T02:31:20.449Z,76.86
2019-01-19T02:34:35.622Z,78.18
2019-01-19T02:37:30.712Z,75.57
2019-01-19T02:40:15.841Z,77.67
2019-01-19T02:43:07.742Z,78.54
2019-01-19T02:45:55.600Z,78.96
2019-01-19T02:49:00.976Z,78.21
2019-01-19T02:52:40.768Z,77.14
2019-01-19T02:55:38.101Z,77.63
2019-01-19T02:58:35.897Z,74.85
2019-01-19T03:01:40.741Z,77.81
2019-01-19T03:04:49.912Z,77.79
2019-01-19T03:08:14.531Z,75.43
2019-01-19T03:11:31.787Z,79.73
2019-01-19T03:14:30.458Z,81.13
2019-01-19T03:17:47.504Z,80.18
2019-01-19T03:20:59.555Z,77.92
2019-01-19T03:24:16.509Z,74.65
2019-01-19T03:27:02.185Z,74.29
2019-01-19T03:29:41.871Z,74.91
2019-01-19T03:32:29.976Z,76.31
2019-01-19T03:35:20.776Z,75.77
2019-01-19T03:38:27.111Z,74.80
2019-01-19T03:41:13.400Z,74.03
2019-01-19T03:44:28.550Z,81.04
2019-01-19T03:47:25.070Z,80.08
2019-01-19T03:50:46.114Z,74.33
2019-01-19T03:53:28.023Z,73.36
2019-01-19T03:56:21.335Z,73.29
2019-01-19T03:59:21.861Z,73.32
2019-01-19T04:02:16.197Z,73.71
2019-01-19T04:05:09.308Z,78.91
2019-01-19T04:08:09.570Z,75.61
2019-01-19T04:10:45.113Z,72.54
2019-01-19T04:13:53.552Z,73.90
2019-01-19T04:17:18.183Z,74.97
2019-01-19T04:20:15.613Z,74.38
2019-01-19T04:22:49.190Z,74.67
2019-01-19T04:25:50.185Z,74.51
2019-01-19T04:28:19.665Z,75.54
2019-01-19T04:30:49.753Z,76.43
2019-01-19T04:33:17.421Z,77.06
2019-01-19T04:35:45.274Z,76.94
2019-01-19T04:38:12.998Z,77.19
2019-01-19T04:40:40.561Z,77.30
2019-01-19T04:43:09.098Z,77.70
2019-01-19T04:45:36.620Z,77.44
2019-01-19T04:48:04.529Z,77.70
2019-01-19T04:50:32.067Z,78.86
2019-01-19T04:52:59.562Z,79.49
2019-01-19T04:55:27.171Z,80.18
2019-01-19T04:57:54.828Z,81.47
2019-01-19T05:00:23.204Z,81.16
2019-01-19T05:02:50.790Z,80.55
2019-01-19T05:05:18.782Z,80.50
2019-01-19T05:07:46.144Z,80.87
2019-01-19T05:10:14.153Z,81.10
2019-01-19T05:12:41.803Z,82.38
2019-01-19T05:15:12.452Z,82.89
2019-01-19T05:17:40.157Z,83.43
2019-01-19T05:20:09.010Z,84.93
2019-01-19T05:22:36.575Z,86.89
2019-01-19T05:25:10.128Z,86.03
2019-01-19T05:27:37.838Z,83.95
2019-01-19T05:30:11.665Z,81.82
2019-01-19T05:32:39.197Z,80.90
2019-01-19T05:35:07.375Z,81.32
2019-01-19T05:37:35.163Z,79.77
2019-01-19T05:40:03.783Z,78.92
2019-01-19T05:42:31.449Z,79.80
2019-01-19T05:44:58.954Z,80.40
2019-01-19T05:47:26.379Z,80.97
2019-01-19T05:49:53.962Z,84.09
2019-01-19T05:52:21.491Z,87.16
2019-01-19T05:54:50.073Z,87.27
2019-01-19T05:57:17.589Z,88.77
2019-01-19T05:59:45.233Z,87.56
2019-01-19T06:02:12.952Z,85.46
2019-01-19T06:04:40.500Z,84.02
2019-01-19T06:07:08.040Z,85.34
2019-01-19T06:09:35.577Z,83.15
2019-01-19T06:12:03.575Z,80.16
2019-01-19T06:14:31.254Z,80.19
2019-01-19T06:16:58.839Z,80.12
2019-01-19T06:19:26.879Z,81.56
2019-01-19T06:21:59.406Z,80.28
2019-01-19T06:24:27.241Z,84.06
2019-01-19T06:26:54.992Z,82.24
2019-01-19T06:29:22.716Z,81.15
2019-01-19T06:31:50.240Z,80.34
2019-01-19T06:34:17.707Z,78.56
2019-01-19T06:36:45.153Z,78.44
2019-01-19T06:39:12.699Z,79.46
2019-01-19T06:41:40.292Z,80.59
2019-01-19T06:44:07.796Z,83.21
2019-01-19T06:46:35.475Z,84.25
2019-01-19T06:49:02.998Z,82.28
2019-01-19T06:51:30.659Z,81.42
2019-01-19T06:54:01.767Z,79.50
2019-01-19T06:56:28.448Z,76.41
2019-01-19T06:58:56.214Z,79.17
2019-01-19T07:01:23.748Z,81.90
2019-01-19T07:03:51.583Z,77.38
2019-01-19T07:06:19.379Z,76.66
2019-01-19T07:08:47.698Z,81.05
2019-01-19T07:11:15.192Z,75.80
2019-01-19T07:13:42.806Z,73.61
2019-01-19T07:16:10.310Z,72.82
2019-01-19T07:18:37.796Z,76.47
2019-01-19T07:21:05.267Z,78.29
2019-01-19T07:23:32.928Z,76.86
2019-01-19T07:26:00.519Z,82.35
2019-01-19T07:28:28.093Z,77.56
2019-01-19T07:30:55.481Z,74.75
2019-01-19T07:33:23.062Z,74.23
2019-01-19T07:35:50.982Z,75.07
2019-01-19T07:38:18.622Z,77.48
2019-01-19T07:40:46.137Z,77.36
2019-01-19T07:43:15.255Z,80.28
2019-01-19T07:45:42.770Z,79.90
2019-01-19T07:48:10.985Z,78.40
2019-01-19T07:50:38.672Z,77.70
2019-01-19T07:53:06.381Z,75.36
2019-01-19T07:55:34.167Z,76.81
2019-01-19T07:58:01.702Z,76.95
2019-01-19T08:00:30.721Z,79.66
2019-01-19T08:02:58.384Z,79.79
2019-01-19T08:05:26.255Z,77.57
2019-01-19T08:07:53.808Z,77.47
2019-01-19T08:10:21.537Z,77.42
2019-01-19T08:12:49.248Z,78.17
2019-01-19T08:15:19.161Z,79.10
2019-01-19T08:17:46.776Z,79.49
2019-01-19T08:20:14.850Z,80.37
2019-01-19T08:22:42.625Z,80.43
2019-01-19T08:25:10.470Z,80.03
2019-01-19T08:27:38.177Z,81.88
2019-01-19T08:30:12.262Z,76.68
2019-01-19T08:32:39.897Z,75.27
2019-01-19T08:35:07.903Z,76.03
2019-01-19T08:37:35.577Z,79.46
2019-01-19T08:40:03.538Z,79.03
2019-01-19T08:42:31.562Z,80.15
2019-01-19T08:45:00.227Z,80.35
2019-01-19T08:47:27.749Z,79.35
2019-01-19T08:49:55.361Z,79.70
2019-01-19T08:52:23.100Z,77.86
2019-01-19T08:54:50.606Z,76.71
2019-01-19T08:57:18.175Z,75.13
2019-01-19T08:59:45.891Z,74.76
2019-01-19T09:02:13.434Z,73.85
2019-01-19T09:04:41.097Z,73.47
2019-01-19T09:07:08.686Z,72.70
2019-01-19T09:09:36.338Z,72.18
2019-01-19T09:12:03.980Z,71.30
2019-01-19T09:14:31.467Z,71.53
2019-01-19T09:16:58.932Z,72.76
2019-01-19T09:19:26.908Z,71.27
2019-01-19T09:21:54.501Z,68.46
2019-01-19T09:24:25.540Z,67.96
2019-01-19T09:26:53.453Z,71.74
2019-01-19T09:29:20.988Z,68.00
2019-01-19T09:31:48.516Z,68.18
2019-01-19T09:34:16.450Z,67.49
2019-01-19T09:36:44.219Z,68.96
2019-01-19T09:39:12.289Z,71.27
2019-01-19T09:41:39.870Z,67.44
2019-01-19T09:44:07.648Z,68.40
2019-01-19T09:46:35.056Z,67.37
2019-01-19T09:49:02.882Z,66.51
2019-01-19T09:51:30.353Z,67.34
2019-01-19T09:53:57.943Z,68.52
2019-01-19T09:56:25.566Z,70.92
2019-01-19T09:58:53.118Z,73.71
2019-01-19T10:01:20.673Z,69.35
2019-01-19T10:03:48.260Z,69.41
2019-01-19T10:06:15.984Z,69.01
2019-01-19T10:08:43.756Z,69.92
2019-01-19T10:11:12.059Z,69.21
2019-01-19T10:13:39.577Z,69.16
2019-01-19T10:16:07.223Z,67.64
2019-01-19T10:18:34.865Z,67.60
2019-01-19T10:21:02.399Z,67.05
2019-01-19T10:23:37.544Z,69.72
2019-01-19T10:26:05.102Z,68.76
2019-01-19T10:28:32.513Z,68.69
2019-01-19T10:31:00.120Z,69.63
2019-01-19T10:33:27.833Z,70.75
2019-01-19T10:35:55.394Z,68.11
2019-01-19T10:38:22.992Z,68.73
2019-01-19T10:40:50.685Z,69.22
2019-01-19T10:43:18.322Z,69.84
2019-01-19T10:45:45.798Z,70.25
2019-01-19T10:48:13.374Z,71.03
2019-01-19T10:50:41.000Z,73.13
2019-01-19T10:53:08.446Z,72.23
2019-01-19T10:55:36.098Z,69.40
2019-01-19T10:58:04.163Z,69.35
2019-01-19T11:00:31.751Z,69.42
2019-01-19T11:02:59.595Z,68.34
2019-01-19T11:05:28.081Z,68.74
2019-01-19T11:08:03.207Z,68.98
2019-01-19T11:10:28.113Z,69.55
2019-01-19T11:12:55.982Z,69.86
2019-01-19T11:15:23.629Z,69.62
2019-01-19T11:17:51.444Z,70.21
2019-01-19T11:20:21.087Z,71.63
2019-01-19T11:22:48.662Z,68.49
2019-01-19T11:25:16.230Z,68.15
2019-01-19T11:27:43.686Z,66.82
2019-01-19T11:30:17.787Z,69.44
2019-01-19T11:32:45.361Z,68.12
2019-01-19T11:35:13.450Z,68.73
2019-01-19T11:37:41.120Z,69.25
2019-01-19T11:40:14.601Z,68.74
2019-01-19T11:42:42.306Z,68.86
2019-01-19T11:45:13.146Z,69.58
2019-01-19T11:47:40.650Z,70.15
2019-01-19T11:50:08.579Z,70.69
2019-01-19T11:52:36.224Z,74.01
2019-01-19T11:55:05.212Z,70.81
2019-01-19T11:57:32.783Z,70.18
2019-01-19T12:00:00.350Z,71.07
2019-01-19T12:02:28.320Z,69.42
2019-01-19T12:04:55.920Z,69.04
2019-01-19T12:07:23.723Z,70.61
2019-01-19T12:09:51.549Z,70.23
2019-01-19T12:12:19.097Z,70.29
2019-01-19T12:14:47.002Z,70.59
2019-01-19T12:17:14.672Z,70.20
2019-01-19T12:19:42.410Z,70.07
2019-01-19T12:22:10.119Z,69.74
2019-01-19T12:24:37.732Z,69.59
2019-01-19T12:27:05.303Z,70.05
2019-01-19T12:29:32.860Z,70.52
2019-01-19T12:32:00.288Z,71.14
2019-01-19T12:34:27.951Z,71.99
2019-01-19T12:36:55.956Z,69.41
2019-01-19T12:39:23.545Z,70.69
2019-01-19T12:41:51.029Z,67.23
2019-01-19T12:44:18.703Z,67.91
2019-01-19T12:46:46.538Z,68.86
2019-01-19T12:49:14.635Z,68.23
2019-01-19T12:51:42.206Z,68.24
2019-01-19T12:54:09.672Z,69.45
2019-01-19T12:56:37.209Z,68.77
2019-01-19T12:59:04.950Z,70.39
2019-01-19T13:01:32.879Z,69.49
2019-01-19T13:04:00.432Z,68.28
2019-01-19T13:06:45.147Z,68.91
2019-01-19T13:09:27.821Z,69.40
2019-01-19T13:12:31.919Z,69.48
2019-01-19T13:15:56.197Z,69.40
2019-01-19T13:18:33.020Z,69.43
2019-01-19T13:21:45.129Z,69.27
2019-01-19T13:24:42.778Z,69.35
2019-01-19T13:27:20.718Z,68.04
2019-01-19T13:30:16.183Z,69.65
2019-01-19T13:33:12.361Z,67.17
2019-01-19T13:36:36.884Z,66.37
2019-01-19T13:39:49.052Z,67.25
2019-01-19T13:42:52.777Z,66.81
2019-01-19T13:45:32.626Z,67.23
2019-01-19T13:48:47.549Z,68.39
2019-01-19T13:51:40.837Z,69.54
2019-01-19T13:54:35.113Z,68.91
2019-01-19T13:57:35.605Z,69.25
2019-01-19T14:01:08.895Z,70.17
2019-01-19T14:03:44.803Z,69.29
2019-01-19T14:06:39.875Z,67.00
2019-01-19T14:09:53.886Z,67.25
2019-01-19T14:12:51.086Z,66.84
2019-01-19T14:15:41.104Z,65.39
2019-01-19T14:19:02.607Z,64.44
2019-01-19T14:21:55.358Z,59.61
2019-01-19T14:24:59.765Z,58.16
2019-01-19T14:28:14.476Z,59.78
2019-01-19T14:31:17.859Z,63.01
2019-01-19T14:34:33.883Z,65.57
2019-01-19T14:37:40.805Z,67.06
2019-01-19T14:40:37.813Z,69.12
2019-01-19T14:43:49.872Z,70.10
2019-01-19T14:46:59.149Z,70.40
2019-01-19T14:50:14.417Z,71.44
2019-01-19T14:53:10.137Z,72.21
2019-01-19T14:56:31.569Z,74.13
2019-01-19T14:59:30.268Z,73.04
2019-01-19T15:02:39.249Z,74.53
2019-01-19T15:05:34.241Z,73.31
2019-01-19T15:08:55.483Z,74.51
2019-01-19T15:11:46.601Z,72.89
2019-01-19T15:14:59.286Z,73.22
2019-01-19T15:18:04.456Z,73.20
2019-01-19T15:21:02.154Z,73.47
2019-01-19T15:23:53.451Z,74.79
2019-01-19T15:27:08.494Z,74.07
2019-01-19T15:29:53.862Z,74.54
2019-01-19T15:33:10.956Z,75.41
2019-01-19T15:36:01.535Z,76.12
2019-01-19T15:39:12.485Z,76.50
2019-01-19T15:42:20.195Z,76.88
2019-01-19T15:45:18.169Z,77.12
2019-01-19T15:48:33.444Z,77.43
2019-01-19T15:51:28.077Z,77.56
2019-01-19T15:54:43.457Z,77.76
2019-01-19T15:57:27.368Z,77.01
2019-01-19T16:00:44.427Z,76.70
2019-01-19T16:03:53.416Z,76.66
2019-01-19T16:06:42.169Z,78.17
2019-01-19T16:09:29.653Z,79.23
2019-01-19T16:12:38.072Z,78.21
2019-01-19T16:15:40.249Z,78.83
2019-01-19T16:18:36.998Z,76.41
2019-01-19T16:21:24.608Z,77.35
2019-01-19T16:24:42.722Z,77.78
2019-01-19T16:27:41.277Z,76.46
2019-01-19T16:30:50.162Z,73.20
2019-01-19T16:33:45.853Z,72.64
2019-01-19T16:36:36.740Z,73.84
2019-01-19T16:39:46.222Z,73.53
2019-01-19T16:42:42.493Z,74.30
2019-01-19T16:46:06.697Z,76.77
2019-01-19T16:49:14.645Z,75.02
2019-01-19T16:52:20.324Z,72.81
2019-01-19T16:55:32.492Z,69.98
2019-01-19T16:58:29.968Z,70.15
2019-01-19T17:01:51.369Z,67.47
2019-01-19T17:04:53.116Z,66.11
2019-01-19T17:07:51.247Z,65.18
2019-01-19T17:10:39.195Z,66.57
2019-01-19T17:13:42.595Z,64.58
2019-01-19T17:16:35.922Z,65.81
2019-01-19T17:19:49.583Z,62.51
2019-01-19T17:23:04.962Z,61.18
2019-01-19T17:26:08.870Z,62.92
2019-01-19T17:28:52.687Z,60.29
2019-01-19T17:32:07.513Z,58.46
2019-01-19T17:34:58.740Z,58.42
2019-01-19T17:37:56.864Z,58.86
2019-01-19T17:41:16.082Z,59.37
2019-01-19T17:44:37.789Z,59.90
2019-01-19T17:47:30.823Z,59.49
2019-01-19T17:50:37.614Z,59.86
2019-01-19T17:53:28.510Z,59.00
2019-01-19T17:56:29.288Z,59.95
2019-01-19T17:59:34.413Z,60.39
2019-01-19T18:02:35.206Z,61.76
2019-01-19T18:05:35.531Z,62.33
2019-01-19T18:08:31.725Z,63.02
2019-01-19T18:11:37.222Z,63.40
2019-01-19T18:14:22.878Z,64.42
2019-01-19T18:17:50.551Z,65.50
2019-01-19T18:20:43.026Z,66.34
2019-01-19T18:23:56.828Z,66.99
2019-01-19T18:26:59.699Z,67.53
2019-01-19T18:30:06.161Z,67.48
2019-01-19T18:33:36.853Z,68.19
2019-01-19T18:36:29.515Z,67.99
2019-01-19T18:39:57.042Z,68.70
2019-01-19T18:43:08.738Z,69.09
2019-01-19T18:46:10.198Z,69.37
2019-01-19T18:49:04.100Z,69.72
2019-01-19T18:52:31.844Z,69.69
2019-01-19T18:55:39.770Z,71.15
2019-01-19T18:59:07.059Z,69.82
2019-01-19T19:02:06.907Z,70.28
2019-01-19T19:05:10.515Z,70.94
2019-01-19T19:08:06.803Z,71.42
2019-01-19T19:11:17.651Z,72.86
2019-01-19T19:14:18.750Z,72.39
2019-01-19T19:17:19.243Z,72.45
2019-01-19T19:20:15.680Z,72.58
2019-01-19T19:23:22.095Z,72.04
2019-01-19T19:26:24.821Z,71.96
2019-01-19T19:29:30.061Z,71.80
2019-01-19T19:32:37.990Z,71.76
2019-01-19T19:36:08.420Z,72.25
2019-01-19T19:39:16.783Z,72.06
2019-01-19T19:42:19.527Z,72.62
2019-01-19T19:45:09.732Z,72.87
2019-01-19T19:48:23.898Z,73.04
2019-01-19T19:51:30.345Z,72.81
2019-01-19T19:53:58.214Z,72.90
2019-01-19T19:56:24.482Z,72.38
2019-01-19T19:58:52.006Z,72.12
2019-01-19T20:01:19.550Z,72.24
2019-01-19T20:03:47.288Z,73.16
2019-01-19T20:06:14.929Z,73.12
2019-01-19T20:08:42.401Z,73.53
2019-01-19T20:11:09.952Z,73.49
2019-01-19T20:13:37.716Z,74.11
2019-01-19T20:16:05.340Z,74.84
2019-01-19T20:18:33.072Z,75.47
2019-01-19T20:21:00.577Z,75.50
2019-01-19T20:23:28.847Z,76.26
2019-01-19T20:25:56.737Z,76.66
2019-01-19T20:28:24.194Z,76.65
2019-01-19T20:30:51.845Z,76.81
2019-01-19T20:33:19.273Z,76.04
2019-01-19T20:35:46.914Z,76.57
2019-01-19T20:38:14.504Z,76.91
2019-01-19T20:40:42.227Z,77.12
2019-01-19T20:43:09.732Z,77.22
2019-01-19T20:45:37.240Z,77.18
2019-01-19T20:48:05.113Z,77.09
2019-01-19T20:50:32.693Z,76.78
2019-01-19T20:53:00.288Z,77.03
2019-01-19T20:55:27.910Z,76.75
2019-01-19T20:57:55.412Z,77.47
2019-01-19T21:00:23.135Z,78.03
2019-01-19T21:02:50.656Z,78.16
2019-01-19T21:05:18.151Z,78.21
2019-01-19T21:07:45.619Z,77.07
2019-01-19T21:10:13.299Z,77.02
2019-01-19T21:12:40.902Z,76.94
2019-01-19T21:15:10.122Z,77.12
2019-01-19T21:17:37.581Z,76.96
2019-01-19T21:20:07.290Z,76.82
2019-01-19T21:22:34.858Z,76.11
2019-01-19T21:25:03.159Z,76.71
2019-01-19T21:27:30.656Z,76.38
2019-01-19T21:29:58.238Z,76.24
2019-01-19T21:32:25.725Z,76.38
2019-01-19T21:34:53.241Z,77.25
2019-01-19T21:37:21.028Z,76.53
2019-01-19T21:39:48.755Z,76.92
2019-01-19T21:42:16.353Z,77.45
2019-01-19T21:44:43.899Z,76.81
2019-01-19T21:47:12.072Z,77.23
2019-01-19T21:49:39.937Z,77.04
2019-01-19T21:52:07.606Z,76.85
2019-01-19T21:54:35.461Z,76.92
2019-01-19T21:57:03.247Z,76.63
2019-01-19T21:59:31.087Z,76.13
2019-01-19T22:01:59.253Z,76.21
2019-01-19T22:04:26.936Z,77.09
2019-01-19T22:06:54.826Z,78.20
2019-01-19T22:09:22.344Z,78.15
2019-01-19T22:11:49.892Z,78.65
2019-01-19T22:14:17.438Z,78.64
2019-01-19T22:16:44.967Z,78.86
2019-01-19T22:19:12.476Z,78.48
2019-01-19T22:21:40.092Z,78.27
2019-01-19T22:24:07.650Z,79.09
2019-01-19T22:26:35.821Z,79.88
2019-01-19T22:29:03.790Z,79.76
2019-01-19T22:31:31.443Z,79.99
2019-01-19T22:33:59.166Z,80.86
2019-01-19T22:36:26.729Z,81.59
2019-01-19T22:38:54.339Z,81.61
2019-01-19T22:41:21.955Z,82.59
2019-01-19T22:43:49.572Z,82.77
2019-01-19T22:46:17.349Z,82.78
2019-01-19T22:48:44.984Z,82.97
2019-01-19T22:51:12.742Z,83.29
2019-01-19T22:53:40.395Z,83.83
2019-01-19T22:56:07.947Z,83.42
2019-01-19T22:58:35.671Z,82.95
2019-01-19T23:01:43.597Z,83.64
2019-01-19T23:04:12.144Z,83.14
2019-01-19T23:06:39.855Z,83.26
2019-01-19T23:09:14.277Z,83.65
2019-01-19T23:11:42.525Z,83.65
2019-01-19T23:14:11.415Z,83.49
2019-01-19T23:16:39.744Z,83.60
2019-01-19T23:19:07.488Z,83.74
2019-01-19T23:21:35.056Z,83.60
2019-01-19T23:24:02.670Z,83.90
2019-01-19T23:26:30.580Z,83.23
2019-01-19T23:28:58.054Z,82.98
2019-01-19T23:31:26.095Z,83.19
2019-01-19T23:33:53.635Z,83.14
2019-01-19T23:36:21.224Z,82.73
2019-01-19T23:38:48.767Z,82.09
2019-01-19T23:41:16.213Z,81.86
2019-01-19T23:43:43.732Z,82.78
2019-01-19T23:46:11.301Z,83.28
2019-01-19T23:48:38.791Z,84.15
2019-01-19T23:51:06.427Z,84.16
2019-01-19T23:53:34.223Z,83.87
2019-01-19T23:56:01.753Z,85.17
2019-01-19T23:58:29.191Z,85.53
